createdAt,value
2019-01-02T00:00:00.615Z,6.05
2019-01-02T00:01:00.628Z,6.08
2019-01-02T00:02:00.641Z,6.05
2019-01-02T00:03:00.657Z,6.05
2019-01-02T00:04:00.674Z,6.05
2019-01-02T00:05:00.687Z,6.01
2019-01-02T00:06:00.700Z,6.05
2019-01-02T00:07:00.716Z,6.07
2019-01-02T00:08:00.734Z,6.01
2019-01-02T00:09:00.745Z,6.04
2019-01-02T00:10:00.761Z,6.09
2019-01-02T00:11:00.775Z,5.98
2019-01-02T00:12:00.791Z,6.09
2019-01-02T00:13:00.801Z,6.02
2019-01-02T00:14:00.818Z,5.93
2019-01-02T00:15:00.834Z,5.90
2019-01-02T00:16:00.850Z,5.93
2019-01-02T00:17:00.860Z,5.91
2019-01-02T00:18:00.874Z,6.01
2019-01-02T00:19:00.891Z,5.99
2019-01-02T00:20:00.907Z,5.99
2019-01-02T00:21:00.921Z,5.98
2019-01-02T00:22:00.935Z,6.01
2019-01-02T00:23:00.948Z,5.97
2019-01-02T00:24:00.963Z,6.08
2019-01-02T00:25:00.980Z,6.11
2019-01-02T00:26:00.994Z,6.04
2019-01-02T00:27:01.013Z,6.09
2019-01-02T00:28:01.025Z,6.09
2019-01-02T00:29:01.037Z,6.12
2019-01-02T00:30:01.053Z,6.08
2019-01-02T00:31:01.077Z,6.05
2019-01-02T00:32:01.080Z,6.08
2019-01-02T00:33:01.095Z,5.99
2019-01-02T00:34:01.113Z,6.01
2019-01-02T00:35:01.127Z,5.83
2019-01-02T00:36:01.141Z,5.97
2019-01-02T00:37:01.156Z,5.94
2019-01-02T00:38:01.170Z,5.94
2019-01-02T00:39:01.186Z,5.93
2019-01-02T00:40:01.197Z,5.90
2019-01-02T00:41:01.213Z,5.83
2019-01-02T00:42:01.227Z,5.89
2019-01-02T00:43:01.240Z,5.79
2019-01-02T00:44:01.255Z,5.83
2019-01-02T00:45:01.271Z,5.79
2019-01-02T00:46:01.287Z,5.80
2019-01-02T00:47:01.298Z,5.83
2019-01-02T00:48:01.315Z,5.86
2019-01-02T00:49:01.327Z,5.94
2019-01-02T00:50:01.342Z,5.87
2019-01-02T00:51:01.357Z,5.86
2019-01-02T00:52:01.371Z,5.89
2019-01-02T00:53:01.385Z,5.86
2019-01-02T00:54:01.399Z,5.89
2019-01-02T00:55:01.418Z,5.83
2019-01-02T00:56:02.234Z,5.89
2019-01-02T00:57:01.445Z,5.89
2019-01-02T00:58:01.460Z,5.90
2019-01-02T00:59:01.473Z,5.93
2019-01-02T01:00:01.492Z,5.97
2019-01-02T01:01:01.504Z,5.97
2019-01-02T01:02:01.516Z,6.08
2019-01-02T01:03:01.534Z,6.07
2019-01-02T01:04:01.546Z,6.07
2019-01-02T01:05:01.562Z,6.09
2019-01-02T01:06:01.576Z,6.12
2019-01-02T01:07:01.591Z,5.99
2019-01-02T01:08:01.604Z,6.09
2019-01-02T01:09:01.617Z,6.07
2019-01-02T01:10:01.636Z,6.08
2019-01-02T01:11:01.650Z,6.09
2019-01-02T01:12:01.663Z,6.05
2019-01-02T01:13:01.679Z,6.07
2019-01-02T01:14:01.691Z,6.08
2019-01-02T01:15:01.711Z,6.07
2019-01-02T01:16:01.724Z,5.97
2019-01-02T01:17:01.736Z,5.93
2019-01-02T01:18:01.753Z,5.91
2019-01-02T01:19:01.768Z,5.91
2019-01-02T01:20:01.782Z,5.93
2019-01-02T01:21:01.793Z,6.04
2019-01-02T01:22:01.810Z,6.01
2019-01-02T01:23:01.825Z,6.08
2019-01-02T01:24:01.837Z,6.07
2019-01-02T01:25:01.854Z,6.08
2019-01-02T01:26:02.257Z,6.08
2019-01-02T01:27:01.884Z,6.11
2019-01-02T01:28:01.907Z,6.14
2019-01-02T01:29:01.912Z,6.11
2019-01-02T01:30:01.928Z,6.17
2019-01-02T01:31:01.942Z,6.14
2019-01-02T01:32:01.957Z,6.12
2019-01-02T01:33:01.979Z,6.07
2019-01-02T01:34:01.987Z,6.11
2019-01-02T01:35:02.003Z,6.11
2019-01-02T01:36:02.015Z,6.07
2019-01-02T01:37:02.030Z,6.12
2019-01-02T01:38:02.045Z,6.07
2019-01-02T01:39:02.060Z,6.05
2019-01-02T01:40:02.073Z,6.07
2019-01-02T01:41:02.086Z,6.09
2019-01-02T01:42:02.103Z,6.12
2019-01-02T01:43:02.119Z,6.08
2019-01-02T01:44:02.131Z,6.07
2019-01-02T01:45:02.145Z,6.07
2019-01-02T01:46:02.160Z,6.09
2019-01-02T01:47:02.175Z,6.05
2019-01-02T01:48:02.194Z,6.08
2019-01-02T01:49:02.207Z,6.09
2019-01-02T01:50:02.219Z,6.09
2019-01-02T01:51:02.237Z,6.16
2019-01-02T01:52:02.250Z,6.11
2019-01-02T01:53:02.267Z,6.07
2019-01-02T01:54:02.278Z,6.08
2019-01-02T01:55:02.298Z,6.08
2019-01-02T01:56:02.312Z,6.07
2019-01-02T01:57:02.324Z,6.11
2019-01-02T01:58:02.337Z,6.16
2019-01-02T01:59:02.352Z,6.09
2019-01-02T02:00:02.367Z,6.05
2019-01-02T02:01:02.383Z,6.08
2019-01-02T02:02:02.398Z,5.99
2019-01-02T02:03:02.412Z,5.93
2019-01-02T02:04:02.427Z,5.89
2019-01-02T02:05:02.443Z,5.79
2019-01-02T02:06:02.457Z,5.76
2019-01-02T02:07:02.473Z,5.61
2019-01-02T02:08:02.485Z,5.51
2019-01-02T02:09:02.501Z,5.62
2019-01-02T02:10:02.517Z,5.54
2019-01-02T02:11:02.531Z,5.56
2019-01-02T02:12:02.544Z,5.56
2019-01-02T02:13:02.564Z,5.65
2019-01-02T02:14:02.575Z,5.65
2019-01-02T02:15:02.590Z,5.53
2019-01-02T02:16:02.606Z,5.61
2019-01-02T02:17:02.616Z,5.72
2019-01-02T02:18:02.631Z,5.73
2019-01-02T02:19:02.645Z,5.62
2019-01-02T02:20:02.660Z,5.64
2019-01-02T02:21:02.674Z,5.68
2019-01-02T02:22:02.688Z,5.68
2019-01-02T02:23:02.703Z,5.68
2019-01-02T02:24:02.718Z,5.68
2019-01-02T02:25:02.734Z,5.68
2019-01-02T02:26:02.746Z,5.68
2019-01-02T02:27:02.763Z,5.71
2019-01-02T02:28:02.779Z,5.72
2019-01-02T02:29:02.792Z,5.80
2019-01-02T02:30:02.807Z,5.79
2019-01-02T02:31:02.820Z,5.65
2019-01-02T02:32:02.838Z,5.76
2019-01-02T02:33:02.848Z,5.71
2019-01-02T02:34:02.863Z,5.71
2019-01-02T02:35:02.882Z,5.76
2019-01-02T02:36:02.891Z,5.71
2019-01-02T02:37:02.908Z,5.76
2019-01-02T02:38:02.919Z,5.72
2019-01-02T02:39:02.936Z,5.51
2019-01-02T02:40:02.949Z,5.54
2019-01-02T02:41:02.965Z,5.39
2019-01-02T02:42:02.978Z,5.36
2019-01-02T02:43:02.992Z,5.39
2019-01-02T02:44:03.008Z,5.39
2019-01-02T02:45:03.020Z,5.29
2019-01-02T02:46:03.035Z,5.38
2019-01-02T02:47:03.050Z,5.38
2019-01-02T02:48:03.067Z,5.36
2019-01-02T02:49:03.080Z,5.32
2019-01-02T02:50:03.094Z,5.38
2019-01-02T02:51:03.108Z,5.36
2019-01-02T02:52:03.123Z,5.41
2019-01-02T02:53:03.143Z,5.44
2019-01-02T02:54:03.153Z,5.47
2019-01-02T02:55:03.166Z,5.39
2019-01-02T02:56:03.180Z,5.43
2019-01-02T02:57:03.194Z,5.35
2019-01-02T02:58:03.207Z,5.47
2019-01-02T02:59:03.221Z,5.46
2019-01-02T03:00:03.239Z,5.46
2019-01-02T03:01:03.294Z,5.57
2019-01-02T03:02:03.263Z,5.68
2019-01-02T03:03:03.278Z,5.73
2019-01-02T03:04:03.296Z,5.66
2019-01-02T03:05:03.306Z,5.79
2019-01-02T03:06:03.324Z,5.76
2019-01-02T03:07:03.335Z,5.83
2019-01-02T03:08:03.350Z,5.87
2019-01-02T03:09:03.367Z,5.90
2019-01-02T03:10:03.380Z,5.97
2019-01-02T03:11:03.393Z,5.93
2019-01-02T03:12:03.410Z,5.90
2019-01-02T03:13:03.423Z,5.94
2019-01-02T03:14:03.438Z,5.98
2019-01-02T03:15:03.453Z,5.94
2019-01-02T03:16:03.468Z,6.05
2019-01-02T03:17:03.482Z,6.12
2019-01-02T03:18:03.493Z,6.08
2019-01-02T03:19:03.508Z,6.16
2019-01-02T03:20:03.527Z,6.17
2019-01-02T03:21:03.537Z,6.20
2019-01-02T03:22:03.552Z,6.22
2019-01-02T03:23:03.568Z,6.20
2019-01-02T03:24:03.586Z,6.17
2019-01-02T03:25:03.598Z,6.26
2019-01-02T03:26:03.613Z,6.22
2019-01-02T03:27:03.627Z,6.28
2019-01-02T03:28:03.641Z,6.27
2019-01-02T03:29:03.654Z,6.30
2019-01-02T03:30:03.672Z,6.35
2019-01-02T03:31:03.684Z,6.28
2019-01-02T03:32:03.703Z,6.28
2019-01-02T03:33:03.711Z,6.33
2019-01-02T03:34:03.726Z,6.31
2019-01-02T03:35:03.741Z,6.30
2019-01-02T03:36:03.756Z,6.24
2019-01-02T03:37:03.771Z,6.28
2019-01-02T03:38:03.787Z,6.33
2019-01-02T03:39:03.806Z,6.28
2019-01-02T03:40:03.817Z,6.30
2019-01-02T03:41:03.830Z,6.30
2019-01-02T03:42:03.846Z,6.31
2019-01-02T03:43:03.860Z,6.28
2019-01-02T03:44:03.875Z,6.30
2019-01-02T03:45:03.888Z,6.33
2019-01-02T03:46:03.909Z,6.27
2019-01-02T03:47:03.921Z,6.28
2019-01-02T03:48:03.936Z,6.27
2019-01-02T03:49:03.949Z,6.28
2019-01-02T03:50:03.962Z,6.20
2019-01-02T03:51:03.980Z,6.27
2019-01-02T03:52:03.992Z,6.28
2019-01-02T03:53:04.009Z,6.19
2019-01-02T03:54:04.024Z,6.26
2019-01-02T03:55:04.040Z,6.27
2019-01-02T03:56:04.052Z,6.16
2019-01-02T03:57:04.069Z,6.24
2019-01-02T03:58:04.083Z,6.24
2019-01-02T03:59:04.098Z,6.14
2019-01-02T04:00:04.114Z,6.05
2019-01-02T04:01:04.124Z,6.11
2019-01-02T04:02:04.140Z,6.17
2019-01-02T04:03:04.157Z,6.14
2019-01-02T04:04:04.171Z,6.11
2019-01-02T04:05:04.186Z,6.22
2019-01-02T04:06:04.201Z,6.22
2019-01-02T04:07:04.216Z,6.26
2019-01-02T04:08:04.230Z,6.26
2019-01-02T04:09:04.242Z,6.19
2019-01-02T04:10:04.257Z,6.30
2019-01-02T04:11:04.272Z,6.31
2019-01-02T04:12:04.289Z,6.28
2019-01-02T04:13:04.301Z,6.39
2019-01-02T04:14:04.319Z,6.30
2019-01-02T04:15:04.331Z,6.36
2019-01-02T04:16:04.346Z,6.36
2019-01-02T04:17:04.360Z,6.46
2019-01-02T04:18:04.375Z,6.33
2019-01-02T04:19:04.391Z,6.38
2019-01-02T04:20:04.409Z,6.45
2019-01-02T04:21:04.422Z,6.45
2019-01-02T04:22:04.435Z,6.51
2019-01-02T04:23:04.451Z,6.51
2019-01-02T04:24:04.464Z,6.49
2019-01-02T04:25:04.481Z,6.54
2019-01-02T04:26:04.497Z,6.51
2019-01-02T04:27:04.509Z,6.60
2019-01-02T04:28:04.530Z,6.54
2019-01-02T04:29:04.541Z,6.57
2019-01-02T04:30:04.556Z,6.60
2019-01-02T04:31:04.569Z,6.70
2019-01-02T04:32:04.583Z,6.63
2019-01-02T04:33:04.601Z,6.59
2019-01-02T04:34:04.613Z,6.69
2019-01-02T04:35:04.629Z,6.64
2019-01-02T04:36:04.644Z,6.70
2019-01-02T04:37:04.679Z,6.69
2019-01-02T04:38:04.674Z,6.66
2019-01-02T04:39:04.691Z,6.64
2019-01-02T04:40:04.702Z,6.74
2019-01-02T04:41:04.720Z,6.72
2019-01-02T04:42:04.732Z,6.62
2019-01-02T04:43:04.750Z,6.69
2019-01-02T04:44:04.764Z,6.66
2019-01-02T04:45:04.777Z,6.62
2019-01-02T04:46:04.792Z,6.64
2019-01-02T04:47:04.809Z,6.74
2019-01-02T04:48:04.824Z,6.69
2019-01-02T04:49:04.836Z,6.77
2019-01-02T04:50:04.852Z,6.69
2019-01-02T04:51:04.869Z,6.69
2019-01-02T04:52:04.882Z,6.70
2019-01-02T04:53:04.900Z,6.79
2019-01-02T04:54:04.914Z,6.72
2019-01-02T04:55:04.927Z,6.77
2019-01-02T04:56:04.947Z,6.79
2019-01-02T04:57:04.960Z,6.78
2019-01-02T04:58:04.974Z,6.75
2019-01-02T04:59:04.989Z,6.77
2019-01-02T05:00:05.003Z,6.79
2019-01-02T05:01:05.018Z,6.82
2019-01-02T05:02:05.033Z,6.74
2019-01-02T05:03:05.050Z,6.69
2019-01-02T05:04:05.063Z,6.74
2019-01-02T05:05:05.077Z,6.72
2019-01-02T05:06:05.095Z,6.78
2019-01-02T05:07:05.111Z,6.74
2019-01-02T05:08:05.123Z,6.72
2019-01-02T05:09:05.143Z,6.77
2019-01-02T05:10:05.158Z,6.74
2019-01-02T05:11:05.168Z,6.74
2019-01-02T05:12:05.183Z,6.72
2019-01-02T05:13:05.199Z,6.78
2019-01-02T05:14:05.214Z,6.69
2019-01-02T05:15:05.231Z,6.72
2019-01-02T05:16:05.247Z,6.77
2019-01-02T05:17:05.259Z,6.69
2019-01-02T05:18:05.277Z,6.70
2019-01-02T05:19:05.287Z,6.69
2019-01-02T05:20:05.305Z,6.75
2019-01-02T05:21:05.319Z,6.72
2019-01-02T05:22:05.334Z,6.74
2019-01-02T05:23:05.350Z,6.64
2019-01-02T05:24:05.364Z,6.64
2019-01-02T05:25:05.379Z,6.59
2019-01-02T05:26:05.392Z,6.70
2019-01-02T05:27:05.407Z,6.66
2019-01-02T05:28:05.425Z,6.79
2019-01-02T05:29:05.436Z,6.74
2019-01-02T05:30:05.454Z,6.79
2019-01-02T05:31:05.470Z,6.69
2019-01-02T05:32:05.487Z,6.70
2019-01-02T05:33:05.504Z,6.75
2019-01-02T05:34:05.512Z,6.66
2019-01-02T05:35:05.529Z,6.72
2019-01-02T05:36:05.547Z,6.74
2019-01-02T05:37:05.558Z,6.69
2019-01-02T05:38:05.578Z,6.79
2019-01-02T05:39:05.592Z,6.64
2019-01-02T05:40:05.602Z,6.66
2019-01-02T05:41:05.619Z,6.64
2019-01-02T05:42:05.634Z,6.66
2019-01-02T05:43:05.652Z,6.74
2019-01-02T05:44:05.665Z,6.67
2019-01-02T05:45:05.678Z,6.64
2019-01-02T05:46:05.692Z,6.56
2019-01-02T05:47:05.706Z,6.59
2019-01-02T05:48:05.725Z,6.59
2019-01-02T05:49:05.739Z,6.60
2019-01-02T05:50:05.751Z,6.49
2019-01-02T05:51:05.768Z,6.60
2019-01-02T05:52:05.782Z,6.51
2019-01-02T05:53:05.796Z,6.62
2019-01-02T05:54:05.813Z,6.52
2019-01-02T05:55:05.828Z,6.51
2019-01-02T05:56:05.844Z,6.48
2019-01-02T05:57:05.859Z,6.49
2019-01-02T05:58:05.871Z,6.49
2019-01-02T05:59:05.888Z,6.46
2019-01-02T06:00:05.903Z,6.49
2019-01-02T06:01:05.917Z,6.45
2019-01-02T06:02:05.931Z,6.48
2019-01-02T06:03:05.946Z,6.45
2019-01-02T06:04:05.963Z,6.46
2019-01-02T06:05:05.977Z,6.31
2019-01-02T06:06:05.992Z,6.48
2019-01-02T06:07:06.007Z,6.45
2019-01-02T06:08:06.024Z,6.31
2019-01-02T06:09:06.037Z,6.33
2019-01-02T06:10:06.049Z,6.27
2019-01-02T06:11:06.067Z,6.27
2019-01-02T06:12:06.082Z,6.30
2019-01-02T06:13:06.097Z,6.35
2019-01-02T06:14:06.117Z,6.17
2019-01-02T06:15:06.129Z,6.20
2019-01-02T06:16:06.139Z,6.30
2019-01-02T06:17:06.156Z,6.22
2019-01-02T06:18:06.173Z,6.24
2019-01-02T06:19:06.185Z,6.27
2019-01-02T06:20:06.200Z,6.20
2019-01-02T06:21:06.212Z,6.28
2019-01-02T06:22:06.231Z,6.24
2019-01-02T06:23:06.245Z,6.19
2019-01-02T06:24:06.260Z,6.22
2019-01-02T06:25:06.274Z,6.27
2019-01-02T06:26:06.289Z,6.14
2019-01-02T06:27:06.302Z,6.24
2019-01-02T06:28:06.319Z,6.19
2019-01-02T06:29:06.331Z,6.11
2019-01-02T06:30:06.346Z,6.16
2019-01-02T06:31:06.362Z,6.14
2019-01-02T06:32:06.386Z,6.20
2019-01-02T06:33:06.396Z,6.20
2019-01-02T06:34:06.407Z,6.09
2019-01-02T06:35:06.420Z,6.19
2019-01-02T06:36:06.435Z,6.17
2019-01-02T06:37:06.452Z,6.09
2019-01-02T06:38:06.469Z,6.09
2019-01-02T06:39:06.481Z,6.16
2019-01-02T06:40:06.494Z,6.09
2019-01-02T06:41:06.508Z,6.17
2019-01-02T06:42:06.523Z,6.11
2019-01-02T06:43:06.538Z,6.12
2019-01-02T06:44:06.553Z,6.14
2019-01-02T06:45:06.567Z,6.19
2019-01-02T06:46:06.582Z,6.20
2019-01-02T06:47:06.597Z,6.09
2019-01-02T06:48:06.614Z,6.22
2019-01-02T06:49:06.627Z,6.20
2019-01-02T06:50:06.640Z,6.24
2019-01-02T06:51:06.659Z,6.17
2019-01-02T06:52:06.670Z,6.11
2019-01-02T06:53:06.687Z,6.14
2019-01-02T06:54:06.701Z,6.16
2019-01-02T06:55:06.718Z,6.09
2019-01-02T06:56:06.730Z,6.14
2019-01-02T06:57:06.746Z,6.04
2019-01-02T06:58:06.763Z,6.05
2019-01-02T06:59:06.776Z,6.08
2019-01-02T07:00:06.795Z,6.08
2019-01-02T07:01:06.804Z,6.09
2019-01-02T07:02:06.819Z,6.08
2019-01-02T07:03:06.831Z,6.08
2019-01-02T07:04:06.849Z,6.01
2019-01-02T07:05:06.861Z,6.11
2019-01-02T07:06:06.876Z,5.99
2019-01-02T07:07:06.896Z,5.98
2019-01-02T07:08:06.909Z,5.98
2019-01-02T07:09:06.923Z,5.91
2019-01-02T07:10:06.934Z,5.89
2019-01-02T07:11:06.952Z,6.02
2019-01-02T07:12:06.967Z,5.90
2019-01-02T07:13:06.981Z,5.86
2019-01-02T07:14:06.993Z,5.87
2019-01-02T07:15:07.053Z,5.87
2019-01-02T07:16:07.026Z,5.86
2019-01-02T07:17:07.038Z,5.80
2019-01-02T07:18:07.054Z,5.84
2019-01-02T07:19:07.066Z,5.76
2019-01-02T07:20:07.085Z,5.83
2019-01-02T07:21:07.095Z,5.86
2019-01-02T07:22:07.110Z,5.84
2019-01-02T07:23:07.128Z,5.80
2019-01-02T07:24:07.140Z,5.87
2019-01-02T07:25:07.160Z,5.87
2019-01-02T07:26:07.171Z,5.84
2019-01-02T07:27:07.185Z,5.84
2019-01-02T07:28:07.200Z,5.87
2019-01-02T07:29:07.215Z,5.84
2019-01-02T07:30:07.229Z,5.86
2019-01-02T07:31:07.244Z,5.80
2019-01-02T07:32:07.260Z,5.76
2019-01-02T07:33:07.273Z,5.79
2019-01-02T07:34:07.289Z,5.76
2019-01-02T07:35:07.300Z,5.82
2019-01-02T07:36:07.315Z,5.72
2019-01-02T07:37:07.632Z,5.65
2019-01-02T07:38:07.345Z,5.72
2019-01-02T07:39:07.360Z,5.62
2019-01-02T07:40:07.376Z,5.73
2019-01-02T07:41:07.389Z,5.79
2019-01-02T07:42:07.406Z,5.75
2019-01-02T07:43:07.420Z,5.79
2019-01-02T07:44:07.432Z,5.75
2019-01-02T07:45:07.445Z,5.83
2019-01-02T07:46:07.463Z,5.64
2019-01-02T07:47:07.475Z,5.76
2019-01-02T07:48:07.492Z,5.62
2019-01-02T07:49:07.503Z,5.76
2019-01-02T07:50:07.521Z,5.68
2019-01-02T07:51:07.542Z,5.79
2019-01-02T07:52:07.548Z,5.79
2019-01-02T07:53:07.564Z,5.64
2019-01-02T07:54:07.580Z,5.62
2019-01-02T07:55:07.591Z,5.65
2019-01-02T07:56:07.606Z,5.73
2019-01-02T07:57:07.622Z,5.82
2019-01-02T07:58:07.635Z,5.76
2019-01-02T07:59:07.651Z,5.82
2019-01-02T08:00:07.666Z,5.90
2019-01-02T08:01:07.681Z,5.84
2019-01-02T08:02:07.694Z,5.84
2019-01-02T08:03:07.709Z,5.82
2019-01-02T08:04:07.722Z,5.82
2019-01-02T08:05:07.739Z,5.82
2019-01-02T08:06:07.753Z,5.97
2019-01-02T08:07:07.769Z,5.84
2019-01-02T08:08:07.783Z,5.87
2019-01-02T08:09:07.795Z,5.82
2019-01-02T08:10:07.812Z,5.87
2019-01-02T08:11:07.824Z,5.84
2019-01-02T08:12:07.843Z,5.83
2019-01-02T08:13:07.856Z,5.86
2019-01-02T08:14:07.871Z,5.84
2019-01-02T08:15:07.886Z,5.93
2019-01-02T08:16:07.900Z,5.86
2019-01-02T08:17:07.911Z,5.93
2019-01-02T08:18:07.932Z,5.89
2019-01-02T08:19:07.941Z,5.90
2019-01-02T08:20:07.961Z,5.98
2019-01-02T08:21:07.970Z,5.97
2019-01-02T08:22:07.984Z,5.91
2019-01-02T08:23:08.002Z,6.01
2019-01-02T08:24:08.015Z,5.93
2019-01-02T08:25:08.031Z,5.97
2019-01-02T08:26:08.048Z,6.01
2019-01-02T08:27:08.058Z,5.93
2019-01-02T08:28:08.073Z,6.01
2019-01-02T08:29:08.090Z,5.99
2019-01-02T08:30:08.105Z,5.99
2019-01-02T08:31:08.117Z,6.04
2019-01-02T08:32:08.132Z,5.98
2019-01-02T08:33:08.146Z,5.98
2019-01-02T08:34:08.161Z,6.07
2019-01-02T08:35:08.177Z,6.05
2019-01-02T08:36:08.191Z,6.02
2019-01-02T08:37:08.205Z,6.02
2019-01-02T08:38:08.220Z,6.02
2019-01-02T08:39:08.240Z,5.98
2019-01-02T08:40:08.250Z,6.02
2019-01-02T08:41:08.263Z,6.07
2019-01-02T08:42:08.278Z,6.04
2019-01-02T08:43:08.297Z,5.99
2019-01-02T08:44:08.311Z,6.05
2019-01-02T08:45:08.321Z,6.05
2019-01-02T08:46:08.337Z,6.02
2019-01-02T08:47:08.352Z,6.02
2019-01-02T08:48:08.370Z,6.01
2019-01-02T08:49:08.483Z,5.97
2019-01-02T08:50:08.397Z,5.97
2019-01-02T08:51:08.411Z,5.97
2019-01-02T08:52:08.425Z,5.97
2019-01-02T08:53:08.442Z,5.90
2019-01-02T08:54:08.456Z,6.01
2019-01-02T08:55:08.474Z,6.01
2019-01-02T08:56:08.484Z,5.98
2019-01-02T08:57:08.502Z,5.98
2019-01-02T08:58:08.516Z,5.99
2019-01-02T08:59:08.532Z,5.98
2019-01-02T09:00:08.546Z,5.98
2019-01-02T09:01:08.560Z,5.99
2019-01-02T09:02:08.575Z,5.97
2019-01-02T09:03:08.588Z,5.98
2019-01-02T09:04:08.607Z,6.02
2019-01-02T09:05:08.623Z,6.07
2019-01-02T09:06:08.632Z,5.94
2019-01-02T09:07:08.646Z,5.99
2019-01-02T09:08:08.664Z,6.01
2019-01-02T09:09:10.057Z,5.94
2019-01-02T09:10:08.693Z,6.04
2019-01-02T09:11:08.709Z,5.99
2019-01-02T09:12:08.720Z,6.08
2019-01-02T09:13:08.735Z,6.11
2019-01-02T09:14:08.751Z,6.14
2019-01-02T09:15:10.046Z,6.07
2019-01-02T09:16:08.779Z,6.07
2019-01-02T09:17:08.795Z,6.01
2019-01-02T09:18:08.813Z,6.02
2019-01-02T09:19:08.824Z,6.16
2019-01-02T09:20:08.839Z,6.08
2019-01-02T09:21:08.854Z,6.11
2019-01-02T09:22:08.868Z,6.04
2019-01-02T09:23:08.882Z,6.07
2019-01-02T09:24:09.099Z,6.08
2019-01-02T09:25:08.914Z,6.11
2019-01-02T09:26:08.930Z,6.11
2019-01-02T09:27:08.942Z,6.09
2019-01-02T09:28:08.956Z,6.08
2019-01-02T09:29:08.970Z,6.14
2019-01-02T09:30:08.986Z,6.08
2019-01-02T09:31:09.003Z,6.12
2019-01-02T09:32:09.019Z,6.20
2019-01-02T09:33:09.030Z,6.16
2019-01-02T09:34:09.047Z,6.08
2019-01-02T09:35:09.060Z,6.20
2019-01-02T09:36:09.077Z,6.24
2019-01-02T09:37:09.092Z,6.26
2019-01-02T09:38:09.104Z,6.22
2019-01-02T09:39:09.119Z,6.19
2019-01-02T09:40:09.134Z,6.26
2019-01-02T09:41:09.150Z,6.20
2019-01-02T09:42:09.166Z,6.22
2019-01-02T09:43:09.181Z,6.24
2019-01-02T09:44:09.195Z,6.28
2019-01-02T09:45:09.211Z,6.26
2019-01-02T09:46:09.224Z,6.35
2019-01-02T09:47:09.238Z,6.33
2019-01-02T09:48:09.255Z,6.35
2019-01-02T09:49:09.267Z,6.30
2019-01-02T09:50:09.363Z,6.36
2019-01-02T09:51:09.298Z,6.30
2019-01-02T09:52:09.319Z,6.36
2019-01-02T09:53:09.327Z,6.26
2019-01-02T09:54:09.343Z,6.46
2019-01-02T09:55:09.357Z,6.46
2019-01-02T09:56:09.375Z,6.52
2019-01-02T09:57:09.388Z,6.60
2019-01-02T09:58:09.405Z,6.78
2019-01-02T09:59:09.421Z,6.85
2019-01-02T10:00:09.435Z,6.87
2019-01-02T10:01:09.451Z,6.77
2019-01-02T10:02:09.466Z,6.79
2019-01-02T10:03:09.482Z,6.75
2019-01-02T10:04:09.658Z,6.78
2019-01-02T10:05:09.508Z,6.93
2019-01-02T10:06:09.526Z,6.96
2019-01-02T10:07:09.538Z,7.03
2019-01-02T10:08:09.557Z,7.18
2019-01-02T10:09:09.673Z,7.06
2019-01-02T10:10:09.585Z,7.03
2019-01-02T10:11:09.601Z,6.93
2019-01-02T10:12:09.619Z,6.95
2019-01-02T10:13:09.632Z,6.89
2019-01-02T10:14:09.647Z,6.82
2019-01-02T10:15:09.665Z,6.89
2019-01-02T10:16:09.681Z,6.97
2019-01-02T10:17:09.694Z,6.99
2019-01-02T10:18:09.713Z,6.99
2019-01-02T10:19:09.725Z,6.92
2019-01-02T10:20:09.742Z,6.96
2019-01-02T10:21:09.760Z,7.03
2019-01-02T10:22:09.777Z,6.96
2019-01-02T10:23:09.789Z,6.96
2019-01-02T10:24:09.806Z,6.88
2019-01-02T10:25:09.819Z,6.89
2019-01-02T10:26:09.834Z,6.97
2019-01-02T10:27:09.853Z,6.92
2019-01-02T10:28:09.882Z,6.97
2019-01-02T10:29:09.882Z,7.05
2019-01-02T10:30:09.898Z,7.11
2019-01-02T10:31:09.915Z,7.13
2019-01-02T10:32:09.930Z,7.07
2019-01-02T10:33:09.945Z,7.17
2019-01-02T10:34:09.961Z,7.21
2019-01-02T10:35:09.981Z,7.25
2019-01-02T10:36:09.992Z,7.23
2019-01-02T10:37:10.007Z,7.21
2019-01-02T10:38:10.021Z,7.20
2019-01-02T10:39:10.039Z,7.18
2019-01-02T10:40:10.055Z,7.21
2019-01-02T10:41:10.070Z,7.17
2019-01-02T10:42:10.884Z,7.15
2019-01-02T10:43:10.101Z,7.18
2019-01-02T10:44:10.120Z,7.17
2019-01-02T10:45:10.133Z,7.17
2019-01-02T10:46:10.148Z,7.15
2019-01-02T10:47:10.163Z,7.15
2019-01-02T10:48:10.181Z,7.15
2019-01-02T10:49:10.195Z,7.10
2019-01-02T10:50:10.208Z,7.17
2019-01-02T10:51:10.527Z,7.17
2019-01-02T10:52:10.239Z,7.15
2019-01-02T10:53:10.254Z,7.15
2019-01-02T10:54:10.270Z,7.21
2019-01-02T10:55:10.289Z,7.14
2019-01-02T10:56:10.305Z,7.18
2019-01-02T10:57:10.319Z,7.24
2019-01-02T10:58:10.333Z,7.18
2019-01-02T10:59:10.348Z,7.31
2019-01-02T11:00:10.368Z,7.23
2019-01-02T11:01:10.381Z,7.20
2019-01-02T11:02:10.395Z,7.25
2019-01-02T11:03:10.412Z,7.24
2019-01-02T11:04:10.426Z,7.13
2019-01-02T11:05:10.442Z,7.17
2019-01-02T11:06:10.461Z,7.07
2019-01-02T11:07:10.474Z,7.06
2019-01-02T11:08:13.480Z,7.10
2019-01-02T11:09:10.505Z,7.10
2019-01-02T11:10:10.519Z,7.07
2019-01-02T11:11:10.539Z,7.10
2019-01-02T11:12:10.556Z,7.06
2019-01-02T11:13:10.570Z,7.14
2019-01-02T11:14:10.581Z,7.07
2019-01-02T11:15:10.599Z,7.06
2019-01-02T11:16:10.613Z,7.17
2019-01-02T11:17:10.629Z,7.20
2019-01-02T11:18:10.643Z,7.05
2019-01-02T11:19:10.662Z,7.10
2019-01-02T11:20:10.677Z,7.06
2019-01-02T11:21:10.690Z,7.15
2019-01-02T11:22:10.708Z,7.20
2019-01-02T11:23:10.723Z,7.17
2019-01-02T11:24:10.739Z,7.21
2019-01-02T11:25:10.754Z,7.18
2019-01-02T11:26:10.769Z,7.21
2019-01-02T11:27:10.783Z,7.29
2019-01-02T11:28:10.802Z,7.24
2019-01-02T11:29:10.814Z,7.33
2019-01-02T11:30:10.831Z,7.31
2019-01-02T11:31:10.848Z,7.24
2019-01-02T11:32:10.861Z,7.17
2019-01-02T11:33:10.879Z,7.21
2019-01-02T11:34:10.893Z,7.25
2019-01-02T11:35:11.811Z,7.20
2019-01-02T11:36:10.923Z,7.23
2019-01-02T11:37:10.940Z,7.11
2019-01-02T11:38:10.958Z,7.05
2019-01-02T11:39:10.969Z,7.02
2019-01-02T11:40:10.986Z,7.05
2019-01-02T11:41:11.002Z,7.20
2019-01-02T11:42:11.020Z,7.23
2019-01-02T11:43:11.031Z,7.25
2019-01-02T11:44:11.047Z,7.21
2019-01-02T11:45:11.063Z,7.15
2019-01-02T11:46:11.080Z,7.20
2019-01-02T11:47:11.093Z,7.18
2019-01-02T11:48:11.111Z,7.21
2019-01-02T11:49:11.127Z,7.20
2019-01-02T11:50:11.423Z,7.20
2019-01-02T11:51:11.155Z,7.18
2019-01-02T11:52:11.170Z,7.15
2019-01-02T11:53:11.186Z,7.06
2019-01-02T11:54:11.201Z,7.20
2019-01-02T11:55:11.217Z,7.18
2019-01-02T11:56:11.235Z,7.24
2019-01-02T11:57:11.247Z,7.20
2019-01-02T11:58:11.263Z,7.11
2019-01-02T11:59:11.278Z,7.02
2019-01-02T12:00:11.296Z,7.07
2019-01-02T12:01:11.309Z,7.13
2019-01-02T12:02:11.325Z,7.03
2019-01-02T12:03:11.345Z,7.18
2019-01-02T12:04:11.359Z,7.11
2019-01-02T12:05:11.379Z,7.18
2019-01-02T12:06:11.392Z,7.14
2019-01-02T12:07:11.408Z,7.15
2019-01-02T12:08:11.418Z,7.23
2019-01-02T12:09:11.435Z,7.31
2019-01-02T12:10:11.450Z,7.29
2019-01-02T12:11:11.467Z,7.28
2019-01-02T12:12:11.480Z,7.28
2019-01-02T12:13:11.497Z,7.18
2019-01-02T12:14:11.510Z,7.03
2019-01-02T12:15:11.530Z,7.06
2019-01-02T12:16:11.543Z,7.06
2019-01-02T12:17:11.562Z,7.11
2019-01-02T12:18:11.575Z,7.07
2019-01-02T12:19:11.592Z,7.18
2019-01-02T12:20:11.605Z,7.15
2019-01-02T12:21:11.620Z,7.20
2019-01-02T12:22:11.634Z,7.17
2019-01-02T12:23:11.650Z,7.21
2019-01-02T12:24:11.668Z,7.31
2019-01-02T12:25:11.682Z,7.21
2019-01-02T12:26:11.695Z,7.13
2019-01-02T12:27:11.714Z,7.18
2019-01-02T12:28:11.727Z,7.06
2019-01-02T12:29:11.741Z,7.02
2019-01-02T12:30:11.756Z,7.10
2019-01-02T12:31:11.772Z,7.07
2019-01-02T12:32:11.789Z,7.03
2019-01-02T12:33:11.805Z,7.14
2019-01-02T12:34:11.821Z,7.17
2019-01-02T12:35:11.834Z,7.20
2019-01-02T12:36:11.849Z,7.17
2019-01-02T12:37:11.864Z,7.20
2019-01-02T12:38:11.883Z,7.18
2019-01-02T12:39:11.896Z,7.15
2019-01-02T12:40:11.917Z,7.15
2019-01-02T12:41:11.926Z,7.17
2019-01-02T12:42:11.942Z,7.11
2019-01-02T12:43:11.960Z,7.05
2019-01-02T12:44:11.976Z,7.03
2019-01-02T12:45:11.991Z,7.06
2019-01-02T12:46:12.003Z,7.10
2019-01-02T12:47:12.028Z,7.17
2019-01-02T12:48:12.034Z,7.21
2019-01-02T12:49:12.051Z,7.18
2019-01-02T12:50:12.070Z,7.20
2019-01-02T12:51:12.080Z,7.17
2019-01-02T12:52:12.099Z,7.17
2019-01-02T12:53:12.110Z,7.18
2019-01-02T12:54:12.128Z,7.11
2019-01-02T12:55:12.142Z,7.18
2019-01-02T12:56:12.161Z,7.21
2019-01-02T12:57:12.174Z,7.07
2019-01-02T12:58:12.190Z,7.07
2019-01-02T12:59:12.204Z,7.07
2019-01-02T13:00:12.220Z,7.21
2019-01-02T13:01:12.234Z,7.14
2019-01-02T13:02:12.267Z,7.20
2019-01-02T13:03:12.270Z,7.23
2019-01-02T13:04:12.284Z,7.14
2019-01-02T13:05:12.296Z,7.20
2019-01-02T13:06:12.365Z,7.20
2019-01-02T13:07:12.327Z,7.23
2019-01-02T13:08:12.347Z,7.23
2019-01-02T13:09:12.398Z,7.06
2019-01-02T13:10:12.376Z,7.15
2019-01-02T13:11:12.391Z,7.15
2019-01-02T13:12:12.405Z,7.07
2019-01-02T13:13:12.422Z,7.03
2019-01-02T13:14:12.437Z,7.17
2019-01-02T13:15:12.451Z,7.10
2019-01-02T13:16:12.467Z,7.06
2019-01-02T13:17:12.487Z,7.05
2019-01-02T13:18:12.499Z,7.13